Погода Друскининкайна 2 недели

Алитусский уезд, Литва

19 июля-01 августа
  • 19июля
    Сегодня
    +12°
    +26°
    Небольшая облачность
    ВремяПогодаТемператураВлажностьДавлениеВетер, м/сВероятность осадков
    00:00Небольшая облачность+18°C70 %756 мм3.2 м/с2 %
    03:00Облачно с прояснениями+15°C87 %756 мм2.5 м/с2 %
    06:00Ясно и безоблачно+14°C90 %756 мм2.9 м/с2 %
    09:00Практически безоблачно+18°C69 %756 мм4.0 м/с2 %
    12:00Практически безоблачно+23°C46 %755 мм4.4 м/с1 %
    15:00Небольшая облачность+25°C40 %755 мм4.4 м/с2 %
    18:00Ясно и безоблачно+25°C40 %753 мм4.7 м/с2 %
    21:00Ясно и безоблачно+22°C52 %753 мм4.4 м/с2 %
  • 20июля
    Суббота
    +13°
    +26°
    Небольшая облачность
    ВремяПогодаТемператураВлажностьДавлениеВетер, м/сВероятность осадков
    00:00Ясно и безоблачно+16°C68 %753 мм3.0 м/с2 %
    03:00Ясно и безоблачно+13°C84 %753 мм1.8 м/с2 %
    06:00Ясно и безоблачно+12°C93 %752 мм1.9 м/с2 %
    09:00Небольшая облачность+17°C69 %752 мм2.3 м/с2 %
    12:00Ясно и безоблачно+22°C52 %752 мм1.5 м/с2 %
    15:00Небольшая облачность+25°C37 %751 мм2.8 м/с8 %
    18:00Небольшая облачность+26°C33 %749 мм2.9 м/с10 %
    21:00Практически безоблачно+24°C41 %749 мм3.0 м/с3 %
  • 21июля
    Воскресенье
    +15°
    +28°
    Практически безоблачно
    ВремяПогодаТемператураВлажностьДавлениеВетер, м/сВероятность осадков
    00:00Практически безоблачно+17°C70 %749 мм1.9 м/с2 %
    03:00Ясно и безоблачно+15°C84 %749 мм1.7 м/с2 %
    06:00Ясно и безоблачно+14°C94 %749 мм1.1 м/с2 %
    09:00Ясно и безоблачно+21°C59 %749 мм0.7 м/с2 %
    12:00Практически безоблачно+25°C42 %749 мм1.6 м/с8 %
    15:00Практически безоблачно+27°C36 %748 мм1.5 м/с13 %
    18:00Облачно с прояснениями+27°C33 %748 мм1.7 м/с4 %
    21:00Небольшая облачность+25°C43 %748 мм2.3 м/с5 %
  • 22июля
    Понедельник
    +17°
    +30°
    Практически безоблачно
    ВремяПогодаТемператураВлажностьДавлениеВетер, м/сВероятность осадков
    00:00Практически безоблачно+19°C60 %748 мм2.4 м/с2 %
    03:00Ясно и безоблачно+16°C78 %748 мм1.9 м/с2 %
    06:00Облачно с прояснениями+17°C79 %748 мм2.3 м/с2 %
    09:00Ясно и безоблачно+23°C54 %748 мм1.7 м/с3 %
    12:00Практически безоблачно+27°C41 %748 мм1.0 м/с5 %
    15:00Практически безоблачно+29°C36 %748 мм0.6 м/с16 %
    18:00Практически безоблачно+28°C36 %748 мм0.2 м/с18 %
    21:00Ясно и безоблачно+26°C44 %749 мм1.8 м/с14 %
  • 23июля
    Вторник
    +15°
    +28°
    Облачно с прояснениями
    ВремяПогодаТемператураВлажностьДавлениеВетер, м/сВероятность осадков
    00:00Ясно и безоблачно+20°C63 %749 мм1.8 м/с2 %
    03:00Практически безоблачно+18°C83 %749 мм1.8 м/с2 %
    06:00Облачно с прояснениями+18°C91 %749 мм0.9 м/с4 %
    09:00Облачно с прояснениями+23°C63 %750 мм0.2 м/с10 %
    12:00Облачно с прояснениями+27°C45 %750 мм0.9 м/с18 %
    15:00Облачно с прояснениями+27°C41 %750 мм1.4 м/с33 %
    18:00Небольшая облачность+27°C39 %750 мм2.3 м/с42 %
    21:00Практически безоблачно+24°C59 %750 мм4.8 м/с36 %
Мы используем cookies
Соглашаюсь